sensor_id;sensor_type;location;lat;lon;timestamp;P1;durP1;ratioP1;P2;durP2;ratioP2
57846;SDS011;43675;50.030;21.952;2022-09-09T00:06:42;76.05;;;58.48;;
57846;SDS011;43675;50.030;21.952;2022-09-09T00:09:16;75.00;;;56.55;;
57846;SDS011;43675;50.030;21.952;2022-09-09T00:11:48;77.70;;;58.55;;
57846;SDS011;43675;50.030;21.952;2022-09-09T00:17:09;77.95;;;56.75;;
57846;SDS011;43675;50.030;21.952;2022-09-09T00:22:25;73.37;;;57.27;;
57846;SDS011;43675;50.030;21.952;2022-09-09T00:24:55;79.50;;;59.90;;
57846;SDS011;43675;50.030;21.952;2022-09-09T00:27:28;75.60;;;59.67;;
57846;SDS011;43675;50.030;21.952;2022-09-09T00:32:41;72.22;;;57.93;;
57846;SDS011;43675;50.030;21.952;2022-09-09T00:35:14;77.72;;;57.95;;
57846;SDS011;43675;50.030;21.952;2022-09-09T00:38:09;75.17;;;55.75;;
57846;SDS011;43675;50.030;21.952;2022-09-09T00:40:55;76.35;;;56.90;;
57846;SDS011;43675;50.030;21.952;2022-09-09T00:43:37;74.27;;;55.83;;
57846;SDS011;43675;50.030;21.952;2022-09-09T00:48:50;73.30;;;56.80;;
57846;SDS011;43675;50.030;21.952;2022-09-09T00:56:52;75.95;;;59.38;;
57846;SDS011;43675;50.030;21.952;2022-09-09T01:01:50;79.47;;;59.15;;
57846;SDS011;43675;50.030;21.952;2022-09-09T01:04:19;79.80;;;59.58;;
57846;SDS011;43675;50.030;21.952;2022-09-09T01:06:47;77.05;;;58.42;;
57846;SDS011;43675;50.030;21.952;2022-09-09T01:09:22;76.40;;;57.48;;
57846;SDS011;43675;50.030;21.952;2022-09-09T01:12:01;75.65;;;57.88;;
57846;SDS011;43675;50.030;21.952;2022-09-09T01:20:12;79.42;;;58.13;;
57846;SDS011;43675;50.030;21.952;2022-09-09T01:28:31;74.03;;;54.63;;
57846;SDS011;43675;50.030;21.952;2022-09-09T01:30:59;79.00;;;58.02;;
57846;SDS011;43675;50.030;21.952;2022-09-09T01:33:27;82.67;;;59.53;;
57846;SDS011;43675;50.030;21.952;2022-09-09T01:36:08;86.47;;;59.75;;
57846;SDS011;43675;50.030;21.952;2022-09-09T01:38:32;82.67;;;58.83;;
57846;SDS011;43675;50.030;21.952;2022-09-09T01:41:06;79.15;;;57.40;;
57846;SDS011;43675;50.030;21.952;2022-09-09T01:43:31;93.55;;;60.38;;
57846;SDS011;43675;50.030;21.952;2022-09-09T01:45:59;77.53;;;57.23;;
57846;SDS011;43675;50.030;21.952;2022-09-09T01:48:27;83.72;;;58.80;;
57846;SDS011;43675;50.030;21.952;2022-09-09T01:50:53;87.10;;;61.33;;
57846;SDS011;43675;50.030;21.952;2022-09-09T01:53:19;76.72;;;55.33;;
57846;SDS011;43675;50.030;21.952;2022-09-09T02:03:33;74.00;;;57.05;;
57846;SDS011;43675;50.030;21.952;2022-09-09T02:08:35;69.87;;;55.17;;
57846;SDS011;43675;50.030;21.952;2022-09-09T02:11:15;67.97;;;53.85;;
57846;SDS011;43675;50.030;21.952;2022-09-09T02:13:43;70.17;;;53.75;;
57846;SDS011;43675;50.030;21.952;2022-09-09T02:16:28;73.00;;;54.58;;
57846;SDS011;43675;50.030;21.952;2022-09-09T02:21:29;75.65;;;55.83;;
57846;SDS011;43675;50.030;21.952;2022-09-09T02:24:04;70.08;;;53.75;;
57846;SDS011;43675;50.030;21.952;2022-09-09T02:26:32;78.02;;;55.33;;
57846;SDS011;43675;50.030;21.952;2022-09-09T02:29:01;66.15;;;53.55;;
57846;SDS011;43675;50.030;21.952;2022-09-09T02:31:29;77.85;;;55.00;;
57846;SDS011;43675;50.030;21.952;2022-09-09T02:33:58;71.22;;;53.08;;
57846;SDS011;43675;50.030;21.952;2022-09-09T02:36:28;73.47;;;54.70;;
57846;SDS011;43675;50.030;21.952;2022-09-09T02:38:56;71.50;;;49.85;;
57846;SDS011;43675;50.030;21.952;2022-09-09T02:41:31;66.85;;;51.05;;
57846;SDS011;43675;50.030;21.952;2022-09-09T02:44:00;65.15;;;50.85;;
57846;SDS011;43675;50.030;21.952;2022-09-09T02:46:37;64.12;;;51.95;;
57846;SDS011;43675;50.030;21.952;2022-09-09T02:51:44;64.07;;;49.65;;
57846;SDS011;43675;50.030;21.952;2022-09-09T02:54:29;63.73;;;51.75;;
57846;SDS011;43675;50.030;21.952;2022-09-09T02:57:00;66.05;;;51.92;;
57846;SDS011;43675;50.030;21.952;2022-09-09T02:59:39;61.28;;;48.83;;
57846;SDS011;43675;50.030;21.952;2022-09-09T03:02:05;64.60;;;50.50;;
57846;SDS011;43675;50.030;21.952;2022-09-09T03:04:31;65.65;;;50.98;;
57846;SDS011;43675;50.030;21.952;2022-09-09T03:06:58;63.70;;;50.03;;
57846;SDS011;43675;50.030;21.952;2022-09-09T03:09:24;61.95;;;49.67;;
57846;SDS011;43675;50.030;21.952;2022-09-09T03:11:50;61.95;;;47.98;;
57846;SDS011;43675;50.030;21.952;2022-09-09T03:14:15;64.97;;;50.50;;
57846;SDS011;43675;50.030;21.952;2022-09-09T03:16:41;68.28;;;50.78;;
57846;SDS011;43675;50.030;21.952;2022-09-09T03:19:07;58.28;;;48.20;;
57846;SDS011;43675;50.030;21.952;2022-09-09T03:21:33;61.10;;;48.25;;
57846;SDS011;43675;50.030;21.952;2022-09-09T03:23:58;60.12;;;48.02;;
57846;SDS011;43675;50.030;21.952;2022-09-09T03:26:32;64.07;;;50.92;;
57846;SDS011;43675;50.030;21.952;2022-09-09T03:28:58;65.78;;;50.40;;
57846;SDS011;43675;50.030;21.952;2022-09-09T03:31:24;63.68;;;50.00;;
57846;SDS011;43675;50.030;21.952;2022-09-09T03:33:49;69.87;;;49.77;;
57846;SDS011;43675;50.030;21.952;2022-09-09T03:36:15;64.25;;;49.48;;
57846;SDS011;43675;50.030;21.952;2022-09-09T03:38:42;64.45;;;49.18;;
57846;SDS011;43675;50.030;21.952;2022-09-09T03:41:08;62.95;;;48.70;;
57846;SDS011;43675;50.030;21.952;2022-09-09T03:43:40;60.58;;;48.92;;
57846;SDS011;43675;50.030;21.952;2022-09-09T03:46:05;65.78;;;50.85;;
57846;SDS011;43675;50.030;21.952;2022-09-09T03:48:31;68.22;;;52.38;;
57846;SDS011;43675;50.030;21.952;2022-09-09T03:50:56;63.40;;;50.83;;
57846;SDS011;43675;50.030;21.952;2022-09-09T03:53:23;62.50;;;47.45;;
57846;SDS011;43675;50.030;21.952;2022-09-09T03:55:50;62.23;;;50.45;;
57846;SDS011;43675;50.030;21.952;2022-09-09T03:58:18;61.45;;;48.70;;
57846;SDS011;43675;50.030;21.952;2022-09-09T04:00:52;55.35;;;47.98;;
57846;SDS011;43675;50.030;21.952;2022-09-09T04:03:22;59.77;;;48.38;;
57846;SDS011;43675;50.030;21.952;2022-09-09T04:05:49;64.75;;;49.85;;
57846;SDS011;43675;50.030;21.952;2022-09-09T04:08:14;57.05;;;48.50;;
57846;SDS011;43675;50.030;21.952;2022-09-09T04:10:40;63.92;;;49.58;;
57846;SDS011;43675;50.030;21.952;2022-09-09T04:13:06;59.65;;;48.78;;
57846;SDS011;43675;50.030;21.952;2022-09-09T04:15:31;57.65;;;48.55;;
57846;SDS011;43675;50.030;21.952;2022-09-09T04:17:57;56.73;;;47.78;;
57846;SDS011;43675;50.030;21.952;2022-09-09T04:20:23;53.00;;;46.30;;
57846;SDS011;43675;50.030;21.952;2022-09-09T04:22:49;58.78;;;46.42;;
57846;SDS011;43675;50.030;21.952;2022-09-09T04:25:14;54.85;;;45.78;;
57846;SDS011;43675;50.030;21.952;2022-09-09T04:27:47;52.13;;;46.25;;
57846;SDS011;43675;50.030;21.952;2022-09-09T04:30:12;54.50;;;45.78;;
57846;SDS011;43675;50.030;21.952;2022-09-09T04:32:38;62.23;;;48.87;;
57846;SDS011;43675;50.030;21.952;2022-09-09T04:35:04;58.40;;;49.35;;
57846;SDS011;43675;50.030;21.952;2022-09-09T04:37:30;57.60;;;48.25;;
57846;SDS011;43675;50.030;21.952;2022-09-09T04:40:02;63.15;;;46.83;;
57846;SDS011;43675;50.030;21.952;2022-09-09T04:42:28;54.60;;;46.77;;
57846;SDS011;43675;50.030;21.952;2022-09-09T04:44:54;58.52;;;47.27;;
57846;SDS011;43675;50.030;21.952;2022-09-09T04:47:19;57.90;;;46.92;;
57846;SDS011;43675;50.030;21.952;2022-09-09T04:49:45;53.38;;;44.85;;
57846;SDS011;43675;50.030;21.952;2022-09-09T04:52:11;61.28;;;48.33;;
57846;SDS011;43675;50.030;21.952;2022-09-09T04:54:36;54.63;;;47.38;;
57846;SDS011;43675;50.030;21.952;2022-09-09T04:57:02;53.50;;;45.88;;
57846;SDS011;43675;50.030;21.952;2022-09-09T04:59:28;51.95;;;44.88;;
57846;SDS011;43675;50.030;21.952;2022-09-09T05:01:53;46.85;;;41.25;;
57846;SDS011;43675;50.030;21.952;2022-09-09T05:04:21;47.53;;;42.43;;
57846;SDS011;43675;50.030;21.952;2022-09-09T05:06:47;45.65;;;40.70;;
57846;SDS011;43675;50.030;21.952;2022-09-09T05:09:12;49.25;;;41.40;;
57846;SDS011;43675;50.030;21.952;2022-09-09T05:11:38;48.90;;;43.73;;
57846;SDS011;43675;50.030;21.952;2022-09-09T05:14:04;49.38;;;44.08;;
57846;SDS011;43675;50.030;21.952;2022-09-09T05:16:30;49.18;;;43.80;;
57846;SDS011;43675;50.030;21.952;2022-09-09T05:18:56;50.95;;;43.20;;
57846;SDS011;43675;50.030;21.952;2022-09-09T05:21:23;49.88;;;44.38;;
57846;SDS011;43675;50.030;21.952;2022-09-09T05:23:56;50.12;;;43.13;;
57846;SDS011;43675;50.030;21.952;2022-09-09T05:26:22;51.98;;;45.92;;
57846;SDS011;43675;50.030;21.952;2022-09-09T05:28:55;49.50;;;43.78;;
57846;SDS011;43675;50.030;21.952;2022-09-09T05:31:21;54.05;;;46.50;;
57846;SDS011;43675;50.030;21.952;2022-09-09T05:33:47;50.75;;;44.05;;
57846;SDS011;43675;50.030;21.952;2022-09-09T05:36:14;48.15;;;42.27;;
57846;SDS011;43675;50.030;21.952;2022-09-09T05:38:42;45.75;;;41.10;;
57846;SDS011;43675;50.030;21.952;2022-09-09T05:41:08;44.60;;;40.00;;
57846;SDS011;43675;50.030;21.952;2022-09-09T05:43:35;44.90;;;40.20;;
57846;SDS011;43675;50.030;21.952;2022-09-09T05:46:03;43.90;;;39.13;;
57846;SDS011;43675;50.030;21.952;2022-09-09T05:48:36;42.98;;;38.38;;
57846;SDS011;43675;50.030;21.952;2022-09-09T05:51:04;41.80;;;37.45;;
57846;SDS011;43675;50.030;21.952;2022-09-09T05:53:31;41.42;;;37.13;;
57846;SDS011;43675;50.030;21.952;2022-09-09T05:56:01;40.35;;;36.40;;
57846;SDS011;43675;50.030;21.952;2022-09-09T05:58:36;40.55;;;36.40;;
57846;SDS011;43675;50.030;21.952;2022-09-09T06:01:06;39.23;;;35.23;;
57846;SDS011;43675;50.030;21.952;2022-09-09T06:03:34;38.23;;;34.20;;
57846;SDS011;43675;50.030;21.952;2022-09-09T06:06:01;36.70;;;33.08;;
57846;SDS011;43675;50.030;21.952;2022-09-09T06:08:29;36.28;;;32.75;;
57846;SDS011;43675;50.030;21.952;2022-09-09T06:11:00;36.20;;;32.63;;
57846;SDS011;43675;50.030;21.952;2022-09-09T06:13:29;36.53;;;32.83;;
57846;SDS011;43675;50.030;21.952;2022-09-09T06:15:55;36.33;;;32.73;;
57846;SDS011;43675;50.030;21.952;2022-09-09T06:18:21;33.88;;;30.65;;
57846;SDS011;43675;50.030;21.952;2022-09-09T06:20:59;33.80;;;30.57;;
57846;SDS011;43675;50.030;21.952;2022-09-09T06:23:33;33.83;;;30.77;;
57846;SDS011;43675;50.030;21.952;2022-09-09T06:26:06;34.53;;;31.23;;
57846;SDS011;43675;50.030;21.952;2022-09-09T06:28:34;34.85;;;31.48;;
57846;SDS011;43675;50.030;21.952;2022-09-09T06:31:07;35.25;;;31.77;;
57846;SDS011;43675;50.030;21.952;2022-09-09T06:33:36;34.25;;;31.05;;
57846;SDS011;43675;50.030;21.952;2022-09-09T06:36:03;34.48;;;31.07;;
57846;SDS011;43675;50.030;21.952;2022-09-09T06:38:29;33.15;;;29.92;;
57846;SDS011;43675;50.030;21.952;2022-09-09T06:40:55;32.50;;;29.50;;
57846;SDS011;43675;50.030;21.952;2022-09-09T06:43:22;34.23;;;31.10;;
57846;SDS011;43675;50.030;21.952;2022-09-09T06:45:56;32.65;;;29.60;;
57846;SDS011;43675;50.030;21.952;2022-09-09T06:48:24;31.25;;;28.50;;
57846;SDS011;43675;50.030;21.952;2022-09-09T06:50:50;31.77;;;28.65;;
57846;SDS011;43675;50.030;21.952;2022-09-09T06:53:16;28.77;;;26.25;;
57846;SDS011;43675;50.030;21.952;2022-09-09T06:55:42;30.12;;;27.32;;
57846;SDS011;43675;50.030;21.952;2022-09-09T06:58:08;29.52;;;26.82;;
57846;SDS011;43675;50.030;21.952;2022-09-09T07:00:34;29.87;;;27.00;;
57846;SDS011;43675;50.030;21.952;2022-09-09T07:02:59;28.32;;;25.92;;
57846;SDS011;43675;50.030;21.952;2022-09-09T07:05:25;28.05;;;25.50;;
57846;SDS011;43675;50.030;21.952;2022-09-09T07:07:51;29.05;;;26.25;;
57846;SDS011;43675;50.030;21.952;2022-09-09T07:10:16;29.98;;;27.25;;
57846;SDS011;43675;50.030;21.952;2022-09-09T07:12:42;30.05;;;27.40;;
57846;SDS011;43675;50.030;21.952;2022-09-09T07:15:08;29.20;;;26.70;;
57846;SDS011;43675;50.030;21.952;2022-09-09T07:17:34;28.98;;;26.25;;
57846;SDS011;43675;50.030;21.952;2022-09-09T07:20:00;29.75;;;26.95;;
57846;SDS011;43675;50.030;21.952;2022-09-09T07:22:32;29.92;;;27.22;;
57846;SDS011;43675;50.030;21.952;2022-09-09T07:24:58;30.37;;;27.60;;
57846;SDS011;43675;50.030;21.952;2022-09-09T07:27:23;29.40;;;26.85;;
57846;SDS011;43675;50.030;21.952;2022-09-09T07:29:56;28.70;;;26.20;;
57846;SDS011;43675;50.030;21.952;2022-09-09T07:32:21;29.18;;;26.23;;
57846;SDS011;43675;50.030;21.952;2022-09-09T07:34:47;29.02;;;26.42;;
57846;SDS011;43675;50.030;21.952;2022-09-09T07:37:13;29.55;;;26.77;;
57846;SDS011;43675;50.030;21.952;2022-09-09T07:39:39;28.55;;;26.12;;
57846;SDS011;43675;50.030;21.952;2022-09-09T07:42:05;27.45;;;24.92;;
57846;SDS011;43675;50.030;21.952;2022-09-09T07:44:37;26.25;;;23.90;;
57846;SDS011;43675;50.030;21.952;2022-09-09T07:47:03;25.02;;;23.02;;
57846;SDS011;43675;50.030;21.952;2022-09-09T07:49:29;24.37;;;22.40;;
57846;SDS011;43675;50.030;21.952;2022-09-09T07:51:54;24.63;;;22.42;;
57846;SDS011;43675;50.030;21.952;2022-09-09T07:54:20;24.47;;;22.48;;
57846;SDS011;43675;50.030;21.952;2022-09-09T07:56:45;24.43;;;22.05;;
57846;SDS011;43675;50.030;21.952;2022-09-09T07:59:12;23.12;;;21.12;;
57846;SDS011;43675;50.030;21.952;2022-09-09T08:01:48;24.25;;;22.25;;
57846;SDS011;43675;50.030;21.952;2022-09-09T08:04:17;23.98;;;21.77;;
57846;SDS011;43675;50.030;21.952;2022-09-09T08:06:49;22.48;;;20.70;;
57846;SDS011;43675;50.030;21.952;2022-09-09T08:09:13;22.10;;;20.20;;
57846;SDS011;43675;50.030;21.952;2022-09-09T08:11:40;23.77;;;21.52;;
57846;SDS011;43675;50.030;21.952;2022-09-09T08:14:07;21.70;;;20.00;;
57846;SDS011;43675;50.030;21.952;2022-09-09T08:16:35;22.40;;;20.60;;
57846;SDS011;43675;50.030;21.952;2022-09-09T08:19:03;22.00;;;20.10;;
57846;SDS011;43675;50.030;21.952;2022-09-09T08:21:30;21.50;;;19.90;;
57846;SDS011;43675;50.030;21.952;2022-09-09T08:26:31;20.50;;;18.90;;
57846;SDS011;43675;50.030;21.952;2022-09-09T08:28:59;20.80;;;18.98;;
57846;SDS011;43675;50.030;21.952;2022-09-09T08:31:34;20.05;;;18.55;;
57846;SDS011;43675;50.030;21.952;2022-09-09T08:34:02;20.77;;;19.07;;
57846;SDS011;43675;50.030;21.952;2022-09-09T08:36:31;20.75;;;19.05;;
57846;SDS011;43675;50.030;21.952;2022-09-09T08:38:58;20.45;;;18.65;;
57846;SDS011;43675;50.030;21.952;2022-09-09T08:44:14;19.82;;;18.23;;
57846;SDS011;43675;50.030;21.952;2022-09-09T08:47:07;20.35;;;18.85;;
57846;SDS011;43675;50.030;21.952;2022-09-09T08:52:02;20.37;;;18.77;;
57846;SDS011;43675;50.030;21.952;2022-09-09T08:54:31;21.52;;;19.80;;
57846;SDS011;43675;50.030;21.952;2022-09-09T08:56:59;20.23;;;18.62;;
57846;SDS011;43675;50.030;21.952;2022-09-09T08:59:25;20.45;;;18.87;;
57846;SDS011;43675;50.030;21.952;2022-09-09T09:01:57;20.82;;;19.23;;
57846;SDS011;43675;50.030;21.952;2022-09-09T09:04:37;19.07;;;17.57;;
57846;SDS011;43675;50.030;21.952;2022-09-09T09:12:25;19.65;;;18.15;;
57846;SDS011;43675;50.030;21.952;2022-09-09T09:14:56;19.17;;;17.77;;
57846;SDS011;43675;50.030;21.952;2022-09-09T09:17:25;19.92;;;18.42;;
57846;SDS011;43675;50.030;21.952;2022-09-09T09:19:53;20.12;;;18.60;;
57846;SDS011;43675;50.030;21.952;2022-09-09T09:22:23;20.57;;;18.98;;
57846;SDS011;43675;50.030;21.952;2022-09-09T09:30:17;19.50;;;18.10;;
57846;SDS011;43675;50.030;21.952;2022-09-09T09:32:53;20.15;;;18.50;;
57846;SDS011;43675;50.030;21.952;2022-09-09T09:35:23;20.00;;;18.40;;
57846;SDS011;43675;50.030;21.952;2022-09-09T09:37:49;18.77;;;17.35;;
57846;SDS011;43675;50.030;21.952;2022-09-09T09:40:16;18.95;;;17.45;;
57846;SDS011;43675;50.030;21.952;2022-09-09T09:42:48;19.60;;;18.07;;
57846;SDS011;43675;50.030;21.952;2022-09-09T09:48:04;18.10;;;16.70;;
57846;SDS011;43675;50.030;21.952;2022-09-09T09:50:29;18.77;;;17.23;;
57846;SDS011;43675;50.030;21.952;2022-09-09T09:52:57;17.75;;;16.48;;
57846;SDS011;43675;50.030;21.952;2022-09-09T09:55:25;17.27;;;16.07;;
57846;SDS011;43675;50.030;21.952;2022-09-09T09:57:51;18.32;;;16.95;;
57846;SDS011;43675;50.030;21.952;2022-09-09T10:00:18;18.23;;;16.82;;
57846;SDS011;43675;50.030;21.952;2022-09-09T10:02:46;17.95;;;16.55;;
57846;SDS011;43675;50.030;21.952;2022-09-09T10:05:16;18.75;;;17.35;;
57846;SDS011;43675;50.030;21.952;2022-09-09T10:07:44;19.32;;;17.90;;
57846;SDS011;43675;50.030;21.952;2022-09-09T10:10:12;20.62;;;18.85;;
57846;SDS011;43675;50.030;21.952;2022-09-09T10:12:49;18.48;;;17.07;;
57846;SDS011;43675;50.030;21.952;2022-09-09T10:18:04;18.50;;;17.00;;
57846;SDS011;43675;50.030;21.952;2022-09-09T10:20:38;17.50;;;16.20;;
57846;SDS011;43675;50.030;21.952;2022-09-09T10:23:08;17.70;;;16.30;;
57846;SDS011;43675;50.030;21.952;2022-09-09T10:25:47;17.95;;;16.45;;
57846;SDS011;43675;50.030;21.952;2022-09-09T10:34:18;17.92;;;16.52;;
57846;SDS011;43675;50.030;21.952;2022-09-09T10:36:59;17.70;;;16.40;;
57846;SDS011;43675;50.030;21.952;2022-09-09T10:39:33;18.15;;;16.85;;
57846;SDS011;43675;50.030;21.952;2022-09-09T10:42:04;18.52;;;17.02;;
57846;SDS011;43675;50.030;21.952;2022-09-09T10:50:13;18.40;;;17.00;;
57846;SDS011;43675;50.030;21.952;2022-09-09T10:55:39;17.80;;;16.50;;
57846;SDS011;43675;50.030;21.952;2022-09-09T10:58:09;17.57;;;16.37;;
57846;SDS011;43675;50.030;21.952;2022-09-09T11:00:40;16.50;;;15.40;;
57846;SDS011;43675;50.030;21.952;2022-09-09T11:03:19;17.25;;;16.02;;
57846;SDS011;43675;50.030;21.952;2022-09-09T11:05:47;17.55;;;16.12;;
57846;SDS011;43675;50.030;21.952;2022-09-09T11:08:25;16.45;;;15.25;;
57846;SDS011;43675;50.030;21.952;2022-09-09T11:10:58;16.80;;;15.50;;
57846;SDS011;43675;50.030;21.952;2022-09-09T11:21:53;17.40;;;16.10;;
57846;SDS011;43675;50.030;21.952;2022-09-09T11:24:23;17.52;;;16.25;;
57846;SDS011;43675;50.030;21.952;2022-09-09T11:26:58;17.20;;;15.90;;
57846;SDS011;43675;50.030;21.952;2022-09-09T11:29:42;17.10;;;15.90;;
57846;SDS011;43675;50.030;21.952;2022-09-09T11:32:24;17.45;;;16.12;;
57846;SDS011;43675;50.030;21.952;2022-09-09T11:38:10;17.32;;;16.02;;
57846;SDS011;43675;50.030;21.952;2022-09-09T11:40:44;16.93;;;15.53;;
57846;SDS011;43675;50.030;21.952;2022-09-09T11:43:11;17.12;;;15.83;;
57846;SDS011;43675;50.030;21.952;2022-09-09T11:45:39;16.90;;;15.70;;
57846;SDS011;43675;50.030;21.952;2022-09-09T11:48:27;16.55;;;15.35;;
57846;SDS011;43675;50.030;21.952;2022-09-09T11:51:08;16.67;;;15.40;;
57846;SDS011;43675;50.030;21.952;2022-09-09T11:53:36;16.73;;;15.53;;
57846;SDS011;43675;50.030;21.952;2022-09-09T11:56:24;17.00;;;15.90;;
57846;SDS011;43675;50.030;21.952;2022-09-09T12:01:38;17.85;;;16.55;;
57846;SDS011;43675;50.030;21.952;2022-09-09T12:04:11;18.20;;;16.80;;
57846;SDS011;43675;50.030;21.952;2022-09-09T12:06:45;18.02;;;16.62;;
57846;SDS011;43675;50.030;21.952;2022-09-09T12:11:49;17.55;;;16.12;;
57846;SDS011;43675;50.030;21.952;2022-09-09T12:14:20;18.40;;;16.90;;
57846;SDS011;43675;50.030;21.952;2022-09-09T12:16:48;17.12;;;15.70;;
57846;SDS011;43675;50.030;21.952;2022-09-09T12:19:15;17.25;;;15.95;;
57846;SDS011;43675;50.030;21.952;2022-09-09T12:24:40;18.10;;;16.62;;
57846;SDS011;43675;50.030;21.952;2022-09-09T12:32:23;17.30;;;15.98;;
57846;SDS011;43675;50.030;21.952;2022-09-09T12:34:59;17.62;;;16.32;;
57846;SDS011;43675;50.030;21.952;2022-09-09T12:37:34;18.07;;;16.70;;
57846;SDS011;43675;50.030;21.952;2022-09-09T12:40:25;17.90;;;16.57;;
57846;SDS011;43675;50.030;21.952;2022-09-09T12:42:52;16.93;;;15.63;;
57846;SDS011;43675;50.030;21.952;2022-09-09T12:45:23;17.30;;;15.80;;
57846;SDS011;43675;50.030;21.952;2022-09-09T12:47:49;20.82;;;19.42;;
57846;SDS011;43675;50.030;21.952;2022-09-09T12:50:27;17.70;;;16.20;;
57846;SDS011;43675;50.030;21.952;2022-09-09T12:52:56;17.60;;;16.40;;
57846;SDS011;43675;50.030;21.952;2022-09-09T12:55:28;17.27;;;15.98;;
57846;SDS011;43675;50.030;21.952;2022-09-09T12:57:56;17.75;;;16.35;;
57846;SDS011;43675;50.030;21.952;2022-09-09T13:00:23;16.75;;;15.43;;
57846;SDS011;43675;50.030;21.952;2022-09-09T13:02:51;15.83;;;14.63;;
57846;SDS011;43675;50.030;21.952;2022-09-09T13:05:23;15.68;;;14.58;;
57846;SDS011;43675;50.030;21.952;2022-09-09T13:07:51;16.10;;;14.90;;
57846;SDS011;43675;50.030;21.952;2022-09-09T13:10:26;16.45;;;15.25;;
57846;SDS011;43675;50.030;21.952;2022-09-09T13:12:55;16.25;;;15.00;;
57846;SDS011;43675;50.030;21.952;2022-09-09T13:15:22;17.32;;;16.02;;
57846;SDS011;43675;50.030;21.952;2022-09-09T13:17:50;16.45;;;15.13;;
57846;SDS011;43675;50.030;21.952;2022-09-09T13:20:18;16.60;;;15.38;;
57846;SDS011;43675;50.030;21.952;2022-09-09T13:22:46;16.17;;;15.08;;
57846;SDS011;43675;50.030;21.952;2022-09-09T13:30:34;16.05;;;14.85;;
57846;SDS011;43675;50.030;21.952;2022-09-09T13:38:15;16.75;;;15.55;;
57846;SDS011;43675;50.030;21.952;2022-09-09T13:41:02;16.07;;;14.87;;
57846;SDS011;43675;50.030;21.952;2022-09-09T13:43:43;16.52;;;15.03;;
57846;SDS011;43675;50.030;21.952;2022-09-09T13:48:58;16.30;;;15.10;;
57846;SDS011;43675;50.030;21.952;2022-09-09T13:51:39;16.12;;;14.93;;
57846;SDS011;43675;50.030;21.952;2022-09-09T13:54:09;15.95;;;14.75;;
57846;SDS011;43675;50.030;21.952;2022-09-09T13:56:37;16.37;;;15.00;;
57846;SDS011;43675;50.030;21.952;2022-09-09T13:59:04;16.40;;;15.20;;
57846;SDS011;43675;50.030;21.952;2022-09-09T14:01:32;16.52;;;15.23;;
57846;SDS011;43675;50.030;21.952;2022-09-09T14:03:57;16.52;;;15.25;;
57846;SDS011;43675;50.030;21.952;2022-09-09T14:06:23;16.20;;;14.90;;
57846;SDS011;43675;50.030;21.952;2022-09-09T14:08:49;15.93;;;14.73;;
57846;SDS011;43675;50.030;21.952;2022-09-09T14:11:16;16.00;;;14.70;;
57846;SDS011;43675;50.030;21.952;2022-09-09T14:13:42;16.07;;;14.73;;
57846;SDS011;43675;50.030;21.952;2022-09-09T14:16:08;16.60;;;15.18;;
57846;SDS011;43675;50.030;21.952;2022-09-09T14:18:33;16.60;;;15.30;;
57846;SDS011;43675;50.030;21.952;2022-09-09T14:20:59;16.90;;;15.68;;
57846;SDS011;43675;50.030;21.952;2022-09-09T14:23:25;16.73;;;15.20;;
57846;SDS011;43675;50.030;21.952;2022-09-09T14:25:51;16.52;;;15.28;;
57846;SDS011;43675;50.030;21.952;2022-09-09T14:28:23;16.97;;;15.43;;
57846;SDS011;43675;50.030;21.952;2022-09-09T14:30:49;16.75;;;15.48;;
57846;SDS011;43675;50.030;21.952;2022-09-09T14:33:15;17.35;;;15.95;;
57846;SDS011;43675;50.030;21.952;2022-09-09T14:35:41;16.35;;;14.93;;
57846;SDS011;43675;50.030;21.952;2022-09-09T14:38:07;16.90;;;15.43;;
57846;SDS011;43675;50.030;21.952;2022-09-09T14:40:34;17.25;;;15.95;;
57846;SDS011;43675;50.030;21.952;2022-09-09T14:43:09;16.42;;;15.00;;
57846;SDS011;43675;50.030;21.952;2022-09-09T14:45:35;16.95;;;15.58;;
57846;SDS011;43675;50.030;21.952;2022-09-09T14:48:01;17.57;;;16.07;;
57846;SDS011;43675;50.030;21.952;2022-09-09T14:50:28;17.52;;;16.12;;
57846;SDS011;43675;50.030;21.952;2022-09-09T14:52:53;16.23;;;15.03;;
57846;SDS011;43675;50.030;21.952;2022-09-09T14:55:19;17.02;;;15.78;;
57846;SDS011;43675;50.030;21.952;2022-09-09T14:57:45;16.27;;;15.08;;
57846;SDS011;43675;50.030;21.952;2022-09-09T15:00:10;16.37;;;15.10;;
57846;SDS011;43675;50.030;21.952;2022-09-09T15:02:36;17.00;;;15.80;;
57846;SDS011;43675;50.030;21.952;2022-09-09T15:05:09;16.85;;;15.60;;
57846;SDS011;43675;50.030;21.952;2022-09-09T15:07:35;16.87;;;15.50;;
57846;SDS011;43675;50.030;21.952;2022-09-09T15:10:00;16.87;;;15.63;;
57846;SDS011;43675;50.030;21.952;2022-09-09T15:12:26;16.67;;;15.30;;
57846;SDS011;43675;50.030;21.952;2022-09-09T15:14:52;16.15;;;14.90;;
57846;SDS011;43675;50.030;21.952;2022-09-09T15:17:24;16.97;;;15.58;;
57846;SDS011;43675;50.030;21.952;2022-09-09T15:19:49;16.60;;;15.28;;
57846;SDS011;43675;50.030;21.952;2022-09-09T15:22:15;16.07;;;14.65;;
57846;SDS011;43675;50.030;21.952;2022-09-09T15:24:41;16.37;;;14.98;;
57846;SDS011;43675;50.030;21.952;2022-09-09T15:27:07;17.80;;;16.17;;
57846;SDS011;43675;50.030;21.952;2022-09-09T15:29:32;17.07;;;15.78;;
57846;SDS011;43675;50.030;21.952;2022-09-09T15:31:58;17.90;;;16.40;;
57846;SDS011;43675;50.030;21.952;2022-09-09T15:34:24;17.23;;;15.78;;
57846;SDS011;43675;50.030;21.952;2022-09-09T15:36:49;17.17;;;15.78;;
57846;SDS011;43675;50.030;21.952;2022-09-09T15:39:16;17.37;;;15.98;;
57846;SDS011;43675;50.030;21.952;2022-09-09T15:41:46;22.67;;;20.43;;
57846;SDS011;43675;50.030;21.952;2022-09-09T15:44:19;23.15;;;21.05;;
57846;SDS011;43675;50.030;21.952;2022-09-09T15:46:49;23.90;;;21.87;;
57846;SDS011;43675;50.030;21.952;2022-09-09T15:49:17;25.32;;;23.00;;
57846;SDS011;43675;50.030;21.952;2022-09-09T15:51:46;27.30;;;24.57;;
57846;SDS011;43675;50.030;21.952;2022-09-09T15:54:15;25.90;;;23.60;;
57846;SDS011;43675;50.030;21.952;2022-09-09T15:56:43;26.15;;;23.87;;
57846;SDS011;43675;50.030;21.952;2022-09-09T15:59:09;26.65;;;24.25;;
57846;SDS011;43675;50.030;21.952;2022-09-09T16:01:35;28.65;;;25.75;;
57846;SDS011;43675;50.030;21.952;2022-09-09T16:04:02;26.25;;;24.02;;
57846;SDS011;43675;50.030;21.952;2022-09-09T16:06:34;27.52;;;25.05;;
57846;SDS011;43675;50.030;21.952;2022-09-09T16:09:01;28.60;;;25.88;;
57846;SDS011;43675;50.030;21.952;2022-09-09T16:11:30;28.35;;;25.82;;
57846;SDS011;43675;50.030;21.952;2022-09-09T16:13:57;29.35;;;26.45;;
57846;SDS011;43675;50.030;21.952;2022-09-09T16:16:25;29.27;;;26.52;;
57846;SDS011;43675;50.030;21.952;2022-09-09T16:18:53;30.20;;;27.27;;
57846;SDS011;43675;50.030;21.952;2022-09-09T16:21:25;31.05;;;28.05;;
57846;SDS011;43675;50.030;21.952;2022-09-09T16:23:52;30.15;;;27.37;;
57846;SDS011;43675;50.030;21.952;2022-09-09T16:26:19;30.20;;;27.25;;
57846;SDS011;43675;50.030;21.952;2022-09-09T16:28:45;30.65;;;27.70;;